sensor_id;sensor_type;location;lat;lon;timestamp;P1;durP1;ratioP1;P2;durP2;ratioP2
45007;SDS011;30743;52.008;5.644;2023-04-05T00:00:38;6.65;;;3.28;;
45007;SDS011;30743;52.008;5.644;2023-04-05T00:03:04;6.85;;;3.40;;
45007;SDS011;30743;52.008;5.644;2023-04-05T00:05:30;7.13;;;3.80;;
45007;SDS011;30743;52.008;5.644;2023-04-05T00:07:58;6.07;;;3.53;;
45007;SDS011;30743;52.008;5.644;2023-04-05T00:10:26;6.00;;;3.85;;
45007;SDS011;30743;52.008;5.644;2023-04-05T00:12:51;4.78;;;3.38;;
45007;SDS011;30743;52.008;5.644;2023-04-05T00:15:17;5.80;;;3.35;;
45007;SDS011;30743;52.008;5.644;2023-04-05T00:17:46;7.57;;;3.28;;
45007;SDS011;30743;52.008;5.644;2023-04-05T00:20:11;7.72;;;3.58;;
45007;SDS011;30743;52.008;5.644;2023-04-05T00:22:37;6.00;;;3.58;;
45007;SDS011;30743;52.008;5.644;2023-04-05T00:25:05;8.85;;;3.33;;
45007;SDS011;30743;52.008;5.644;2023-04-05T00:27:31;7.05;;;3.17;;
45007;SDS011;30743;52.008;5.644;2023-04-05T00:29:57;5.10;;;3.15;;
45007;SDS011;30743;52.008;5.644;2023-04-05T00:32:23;4.85;;;2.97;;
45007;SDS011;30743;52.008;5.644;2023-04-05T00:34:48;6.20;;;3.63;;
45007;SDS011;30743;52.008;5.644;2023-04-05T00:37:14;5.22;;;3.33;;
45007;SDS011;30743;52.008;5.644;2023-04-05T00:39:40;6.45;;;3.60;;
45007;SDS011;30743;52.008;5.644;2023-04-05T00:42:05;5.15;;;3.50;;
45007;SDS011;30743;52.008;5.644;2023-04-05T00:44:33;6.82;;;3.67;;
45007;SDS011;30743;52.008;5.644;2023-04-05T00:47:06;7.53;;;2.80;;
45007;SDS011;30743;52.008;5.644;2023-04-05T00:49:32;5.10;;;3.15;;
45007;SDS011;30743;52.008;5.644;2023-04-05T00:51:59;6.35;;;3.45;;
45007;SDS011;30743;52.008;5.644;2023-04-05T00:54:25;6.80;;;3.75;;
45007;SDS011;30743;52.008;5.644;2023-04-05T00:56:54;6.60;;;3.67;;
45007;SDS011;30743;52.008;5.644;2023-04-05T00:59:20;6.88;;;4.10;;
45007;SDS011;30743;52.008;5.644;2023-04-05T01:01:46;9.88;;;3.53;;
45007;SDS011;30743;52.008;5.644;2023-04-05T01:04:24;7.07;;;3.60;;
45007;SDS011;30743;52.008;5.644;2023-04-05T01:06:59;5.53;;;3.20;;
45007;SDS011;30743;52.008;5.644;2023-04-05T01:09:53;6.28;;;4.05;;
45007;SDS011;30743;52.008;5.644;2023-04-05T01:12:21;5.57;;;3.40;;
45007;SDS011;30743;52.008;5.644;2023-04-05T01:14:50;7.03;;;3.70;;
45007;SDS011;30743;52.008;5.644;2023-04-05T01:17:17;5.00;;;3.45;;
45007;SDS011;30743;52.008;5.644;2023-04-05T01:19:48;5.07;;;3.53;;
45007;SDS011;30743;52.008;5.644;2023-04-05T01:30:25;6.93;;;3.92;;
45007;SDS011;30743;52.008;5.644;2023-04-05T01:38:30;5.93;;;3.88;;
45007;SDS011;30743;52.008;5.644;2023-04-05T01:40:57;5.88;;;3.70;;
45007;SDS011;30743;52.008;5.644;2023-04-05T01:43:23;5.40;;;3.58;;
45007;SDS011;30743;52.008;5.644;2023-04-05T01:45:48;8.27;;;4.55;;
45007;SDS011;30743;52.008;5.644;2023-04-05T01:48:14;6.15;;;4.07;;
45007;SDS011;30743;52.008;5.644;2023-04-05T01:50:40;7.45;;;4.13;;
45007;SDS011;30743;52.008;5.644;2023-04-05T01:53:06;7.78;;;4.22;;
45007;SDS011;30743;52.008;5.644;2023-04-05T01:55:32;6.65;;;4.28;;
45007;SDS011;30743;52.008;5.644;2023-04-05T01:57:57;6.15;;;3.90;;
45007;SDS011;30743;52.008;5.644;2023-04-05T02:00:23;5.28;;;3.58;;
45007;SDS011;30743;52.008;5.644;2023-04-05T02:02:49;6.75;;;3.97;;
45007;SDS011;30743;52.008;5.644;2023-04-05T02:05:15;8.27;;;4.22;;
45007;SDS011;30743;52.008;5.644;2023-04-05T02:07:41;5.90;;;3.97;;
45007;SDS011;30743;52.008;5.644;2023-04-05T02:10:06;7.25;;;4.13;;
45007;SDS011;30743;52.008;5.644;2023-04-05T02:12:32;6.03;;;3.97;;
45007;SDS011;30743;52.008;5.644;2023-04-05T02:14:58;7.80;;;4.28;;
45007;SDS011;30743;52.008;5.644;2023-04-05T02:17:24;7.20;;;4.15;;
45007;SDS011;30743;52.008;5.644;2023-04-05T02:19:49;5.53;;;3.63;;
45007;SDS011;30743;52.008;5.644;2023-04-05T02:22:16;6.18;;;3.30;;
45007;SDS011;30743;52.008;5.644;2023-04-05T02:24:43;6.82;;;4.60;;
45007;SDS011;30743;52.008;5.644;2023-04-05T02:27:08;5.03;;;3.28;;
45007;SDS011;30743;52.008;5.644;2023-04-05T02:29:34;6.78;;;3.78;;
45007;SDS011;30743;52.008;5.644;2023-04-05T02:32:00;8.75;;;4.93;;
45007;SDS011;30743;52.008;5.644;2023-04-05T02:34:25;7.38;;;4.53;;
45007;SDS011;30743;52.008;5.644;2023-04-05T02:36:51;6.97;;;3.85;;
45007;SDS011;30743;52.008;5.644;2023-04-05T02:39:17;8.95;;;4.07;;
45007;SDS011;30743;52.008;5.644;2023-04-05T02:41:43;7.35;;;4.80;;
45007;SDS011;30743;52.008;5.644;2023-04-05T02:44:08;7.78;;;4.15;;
45007;SDS011;30743;52.008;5.644;2023-04-05T02:46:34;8.27;;;4.93;;
45007;SDS011;30743;52.008;5.644;2023-04-05T02:49:00;10.23;;;4.95;;
45007;SDS011;30743;52.008;5.644;2023-04-05T02:51:25;10.63;;;4.75;;
45007;SDS011;30743;52.008;5.644;2023-04-05T02:53:51;6.85;;;4.68;;
45007;SDS011;30743;52.008;5.644;2023-04-05T02:56:17;7.53;;;4.68;;
45007;SDS011;30743;52.008;5.644;2023-04-05T02:58:43;7.00;;;4.10;;
45007;SDS011;30743;52.008;5.644;2023-04-05T03:01:09;8.65;;;4.47;;
45007;SDS011;30743;52.008;5.644;2023-04-05T03:03:35;7.15;;;4.80;;
45007;SDS011;30743;52.008;5.644;2023-04-05T03:06:02;7.47;;;4.78;;
45007;SDS011;30743;52.008;5.644;2023-04-05T03:08:38;7.53;;;4.35;;
45007;SDS011;30743;52.008;5.644;2023-04-05T03:11:08;9.50;;;4.95;;
45007;SDS011;30743;52.008;5.644;2023-04-05T03:13:34;8.10;;;4.72;;
45007;SDS011;30743;52.008;5.644;2023-04-05T03:16:00;9.43;;;4.80;;
45007;SDS011;30743;52.008;5.644;2023-04-05T03:18:27;9.95;;;3.75;;
45007;SDS011;30743;52.008;5.644;2023-04-05T03:20:53;5.57;;;4.00;;
45007;SDS011;30743;52.008;5.644;2023-04-05T03:25:58;7.15;;;3.97;;
45007;SDS011;30743;52.008;5.644;2023-04-05T03:28:25;8.05;;;4.13;;
45007;SDS011;30743;52.008;5.644;2023-04-05T03:30:51;6.35;;;3.65;;
45007;SDS011;30743;52.008;5.644;2023-04-05T03:33:17;7.53;;;4.20;;
45007;SDS011;30743;52.008;5.644;2023-04-05T03:35:43;6.78;;;4.32;;
45007;SDS011;30743;52.008;5.644;2023-04-05T03:38:09;6.70;;;4.32;;
45007;SDS011;30743;52.008;5.644;2023-04-05T03:40:35;9.77;;;4.82;;
45007;SDS011;30743;52.008;5.644;2023-04-05T03:43:00;8.30;;;4.75;;
45007;SDS011;30743;52.008;5.644;2023-04-05T03:45:26;7.43;;;4.60;;
45007;SDS011;30743;52.008;5.644;2023-04-05T03:47:53;10.68;;;4.57;;
45007;SDS011;30743;52.008;5.644;2023-04-05T03:50:19;6.55;;;4.07;;
45007;SDS011;30743;52.008;5.644;2023-04-05T03:52:45;7.35;;;4.28;;
45007;SDS011;30743;52.008;5.644;2023-04-05T03:55:10;9.07;;;3.97;;
45007;SDS011;30743;52.008;5.644;2023-04-05T03:57:37;8.00;;;4.00;;
45007;SDS011;30743;52.008;5.644;2023-04-05T04:00:05;10.80;;;4.28;;
45007;SDS011;30743;52.008;5.644;2023-04-05T04:02:38;8.13;;;3.95;;
45007;SDS011;30743;52.008;5.644;2023-04-05T04:05:07;6.47;;;4.03;;
45007;SDS011;30743;52.008;5.644;2023-04-05T04:07:33;7.18;;;4.40;;
45007;SDS011;30743;52.008;5.644;2023-04-05T04:09:59;7.07;;;4.20;;
45007;SDS011;30743;52.008;5.644;2023-04-05T04:12:24;7.38;;;4.30;;
45007;SDS011;30743;52.008;5.644;2023-04-05T04:14:51;7.45;;;4.03;;
45007;SDS011;30743;52.008;5.644;2023-04-05T04:17:25;6.65;;;4.15;;
45007;SDS011;30743;52.008;5.644;2023-04-05T04:19:51;10.32;;;4.63;;
45007;SDS011;30743;52.008;5.644;2023-04-05T04:22:17;8.30;;;4.20;;
45007;SDS011;30743;52.008;5.644;2023-04-05T04:24:44;7.05;;;3.95;;
45007;SDS011;30743;52.008;5.644;2023-04-05T04:27:14;9.95;;;4.55;;
45007;SDS011;30743;52.008;5.644;2023-04-05T04:29:44;13.80;;;5.45;;
45007;SDS011;30743;52.008;5.644;2023-04-05T04:32:10;10.25;;;4.32;;
45007;SDS011;30743;52.008;5.644;2023-04-05T04:34:37;7.57;;;4.75;;
45007;SDS011;30743;52.008;5.644;2023-04-05T04:37:14;7.90;;;5.13;;
45007;SDS011;30743;52.008;5.644;2023-04-05T04:39:46;7.72;;;5.00;;
45007;SDS011;30743;52.008;5.644;2023-04-05T04:42:13;8.93;;;5.22;;
45007;SDS011;30743;52.008;5.644;2023-04-05T04:44:44;9.15;;;5.03;;
45007;SDS011;30743;52.008;5.644;2023-04-05T04:47:10;10.07;;;5.05;;
45007;SDS011;30743;52.008;5.644;2023-04-05T04:49:41;8.88;;;4.72;;
45007;SDS011;30743;52.008;5.644;2023-04-05T04:52:07;8.82;;;4.70;;
45007;SDS011;30743;52.008;5.644;2023-04-05T04:54:34;7.78;;;4.30;;
45007;SDS011;30743;52.008;5.644;2023-04-05T04:57:00;9.02;;;4.35;;
45007;SDS011;30743;52.008;5.644;2023-04-05T04:59:26;6.60;;;4.43;;
45007;SDS011;30743;52.008;5.644;2023-04-05T05:01:52;12.90;;;5.05;;
45007;SDS011;30743;52.008;5.644;2023-04-05T05:04:18;8.45;;;5.15;;
45007;SDS011;30743;52.008;5.644;2023-04-05T05:06:44;8.95;;;4.63;;
45007;SDS011;30743;52.008;5.644;2023-04-05T05:09:10;7.90;;;4.60;;
45007;SDS011;30743;52.008;5.644;2023-04-05T05:11:35;7.68;;;4.05;;
45007;SDS011;30743;52.008;5.644;2023-04-05T05:14:01;8.95;;;4.15;;
45007;SDS011;30743;52.008;5.644;2023-04-05T05:16:26;6.53;;;4.03;;
45007;SDS011;30743;52.008;5.644;2023-04-05T05:18:52;8.00;;;4.47;;
45007;SDS011;30743;52.008;5.644;2023-04-05T05:21:18;7.35;;;4.32;;
45007;SDS011;30743;52.008;5.644;2023-04-05T05:23:44;6.75;;;4.18;;
45007;SDS011;30743;52.008;5.644;2023-04-05T05:26:11;6.55;;;4.35;;
45007;SDS011;30743;52.008;5.644;2023-04-05T05:28:37;10.50;;;4.07;;
45007;SDS011;30743;52.008;5.644;2023-04-05T05:31:03;6.72;;;4.10;;
45007;SDS011;30743;52.008;5.644;2023-04-05T05:33:29;9.68;;;4.32;;
45007;SDS011;30743;52.008;5.644;2023-04-05T05:35:54;7.88;;;4.63;;
45007;SDS011;30743;52.008;5.644;2023-04-05T05:38:20;6.93;;;4.20;;
45007;SDS011;30743;52.008;5.644;2023-04-05T05:40:46;8.02;;;4.60;;
45007;SDS011;30743;52.008;5.644;2023-04-05T05:43:11;12.05;;;4.25;;
45007;SDS011;30743;52.008;5.644;2023-04-05T05:45:37;8.65;;;4.57;;
45007;SDS011;30743;52.008;5.644;2023-04-05T05:48:03;8.43;;;4.28;;
45007;SDS011;30743;52.008;5.644;2023-04-05T05:50:28;10.85;;;4.47;;
45007;SDS011;30743;52.008;5.644;2023-04-05T05:52:57;8.93;;;4.60;;
45007;SDS011;30743;52.008;5.644;2023-04-05T05:55:23;7.45;;;3.97;;
45007;SDS011;30743;52.008;5.644;2023-04-05T05:57:49;9.00;;;4.88;;
45007;SDS011;30743;52.008;5.644;2023-04-05T06:00:17;9.13;;;4.80;;
45007;SDS011;30743;52.008;5.644;2023-04-05T06:02:43;6.90;;;4.15;;
45007;SDS011;30743;52.008;5.644;2023-04-05T06:05:09;8.30;;;5.70;;
45007;SDS011;30743;52.008;5.644;2023-04-05T06:07:35;6.88;;;4.57;;
45007;SDS011;30743;52.008;5.644;2023-04-05T06:10:02;8.90;;;4.45;;
45007;SDS011;30743;52.008;5.644;2023-04-05T06:12:29;7.70;;;5.00;;
45007;SDS011;30743;52.008;5.644;2023-04-05T06:14:55;9.75;;;4.53;;
45007;SDS011;30743;52.008;5.644;2023-04-05T06:17:20;8.52;;;4.75;;
45007;SDS011;30743;52.008;5.644;2023-04-05T06:19:46;10.80;;;4.47;;
45007;SDS011;30743;52.008;5.644;2023-04-05T06:22:11;9.85;;;4.82;;
45007;SDS011;30743;52.008;5.644;2023-04-05T06:24:37;11.02;;;4.80;;
45007;SDS011;30743;52.008;5.644;2023-04-05T06:27:02;8.18;;;4.75;;
45007;SDS011;30743;52.008;5.644;2023-04-05T06:29:28;8.23;;;4.35;;
45007;SDS011;30743;52.008;5.644;2023-04-05T06:31:55;9.15;;;4.53;;
45007;SDS011;30743;52.008;5.644;2023-04-05T06:34:20;10.52;;;4.82;;
45007;SDS011;30743;52.008;5.644;2023-04-05T06:36:46;8.25;;;4.30;;
45007;SDS011;30743;52.008;5.644;2023-04-05T06:39:11;11.70;;;4.60;;
45007;SDS011;30743;52.008;5.644;2023-04-05T06:41:38;8.23;;;4.57;;
45007;SDS011;30743;52.008;5.644;2023-04-05T06:44:04;15.48;;;5.53;;
45007;SDS011;30743;52.008;5.644;2023-04-05T06:46:30;11.45;;;5.25;;
45007;SDS011;30743;52.008;5.644;2023-04-05T06:48:56;13.32;;;6.43;;
45007;SDS011;30743;52.008;5.644;2023-04-05T06:51:22;11.70;;;4.82;;
45007;SDS011;30743;52.008;5.644;2023-04-05T06:53:49;8.02;;;3.95;;
45007;SDS011;30743;52.008;5.644;2023-04-05T06:56:14;8.57;;;4.60;;
45007;SDS011;30743;52.008;5.644;2023-04-05T06:58:40;6.68;;;4.40;;
45007;SDS011;30743;52.008;5.644;2023-04-05T07:01:06;8.77;;;5.13;;
45007;SDS011;30743;52.008;5.644;2023-04-05T07:03:31;7.72;;;4.45;;
45007;SDS011;30743;52.008;5.644;2023-04-05T07:05:58;8.18;;;4.30;;
45007;SDS011;30743;52.008;5.644;2023-04-05T07:08:24;6.57;;;4.18;;
45007;SDS011;30743;52.008;5.644;2023-04-05T07:10:51;6.95;;;4.30;;
45007;SDS011;30743;52.008;5.644;2023-04-05T07:13:18;7.65;;;4.20;;
45007;SDS011;30743;52.008;5.644;2023-04-05T07:15:44;10.10;;;3.88;;
45007;SDS011;30743;52.008;5.644;2023-04-05T07:18:11;5.28;;;3.70;;
45007;SDS011;30743;52.008;5.644;2023-04-05T07:20:39;7.10;;;3.90;;
45007;SDS011;30743;52.008;5.644;2023-04-05T07:23:05;5.80;;;3.88;;
45007;SDS011;30743;52.008;5.644;2023-04-05T07:25:31;6.50;;;4.22;;
45007;SDS011;30743;52.008;5.644;2023-04-05T07:27:56;5.35;;;3.65;;
45007;SDS011;30743;52.008;5.644;2023-04-05T07:30:22;5.88;;;3.50;;
45007;SDS011;30743;52.008;5.644;2023-04-05T07:32:49;5.57;;;3.75;;
45007;SDS011;30743;52.008;5.644;2023-04-05T07:35:15;5.72;;;3.55;;
45007;SDS011;30743;52.008;5.644;2023-04-05T07:37:41;4.43;;;3.13;;
45007;SDS011;30743;52.008;5.644;2023-04-05T07:40:06;4.63;;;3.17;;
45007;SDS011;30743;52.008;5.644;2023-04-05T07:42:34;6.72;;;3.45;;
45007;SDS011;30743;52.008;5.644;2023-04-05T07:45:00;7.85;;;2.92;;
45007;SDS011;30743;52.008;5.644;2023-04-05T07:47:26;4.60;;;2.83;;
45007;SDS011;30743;52.008;5.644;2023-04-05T07:49:51;5.18;;;3.17;;
45007;SDS011;30743;52.008;5.644;2023-04-05T07:52:17;4.72;;;2.90;;
45007;SDS011;30743;52.008;5.644;2023-04-05T07:54:43;4.80;;;3.00;;
45007;SDS011;30743;52.008;5.644;2023-04-05T07:57:09;6.65;;;3.42;;
45007;SDS011;30743;52.008;5.644;2023-04-05T07:59:42;6.10;;;3.03;;
45007;SDS011;30743;52.008;5.644;2023-04-05T08:02:07;4.85;;;3.20;;
45007;SDS011;30743;52.008;5.644;2023-04-05T08:04:33;3.55;;;2.90;;
45007;SDS011;30743;52.008;5.644;2023-04-05T08:06:58;5.15;;;3.30;;
45007;SDS011;30743;52.008;5.644;2023-04-05T08:09:24;7.32;;;3.00;;
45007;SDS011;30743;52.008;5.644;2023-04-05T08:11:49;5.15;;;3.25;;
45007;SDS011;30743;52.008;5.644;2023-04-05T08:14:15;4.30;;;3.10;;
45007;SDS011;30743;52.008;5.644;2023-04-05T08:16:41;7.25;;;3.20;;
45007;SDS011;30743;52.008;5.644;2023-04-05T08:19:07;5.95;;;3.03;;
45007;SDS011;30743;52.008;5.644;2023-04-05T08:21:33;4.70;;;3.30;;
45007;SDS011;30743;52.008;5.644;2023-04-05T08:23:58;5.45;;;3.58;;
45007;SDS011;30743;52.008;5.644;2023-04-05T08:26:24;6.13;;;3.10;;
45007;SDS011;30743;52.008;5.644;2023-04-05T08:28:50;5.63;;;3.50;;
45007;SDS011;30743;52.008;5.644;2023-04-05T08:31:16;5.68;;;3.45;;
45007;SDS011;30743;52.008;5.644;2023-04-05T08:33:41;5.55;;;3.20;;
45007;SDS011;30743;52.008;5.644;2023-04-05T08:36:07;5.05;;;3.10;;
45007;SDS011;30743;52.008;5.644;2023-04-05T08:38:34;5.80;;;3.10;;
45007;SDS011;30743;52.008;5.644;2023-04-05T08:41:07;5.28;;;3.03;;
45007;SDS011;30743;52.008;5.644;2023-04-05T08:43:57;5.07;;;3.17;;
45007;SDS011;30743;52.008;5.644;2023-04-05T08:46:26;5.20;;;3.53;;
45007;SDS011;30743;52.008;5.644;2023-04-05T08:48:55;5.47;;;3.55;;
45007;SDS011;30743;52.008;5.644;2023-04-05T08:51:22;8.02;;;3.28;;
45007;SDS011;30743;52.008;5.644;2023-04-05T08:53:50;6.10;;;3.40;;
45007;SDS011;30743;52.008;5.644;2023-04-05T08:56:25;5.75;;;3.05;;
45007;SDS011;30743;52.008;5.644;2023-04-05T08:59:05;6.68;;;3.35;;
45007;SDS011;30743;52.008;5.644;2023-04-05T09:01:32;4.75;;;3.30;;
45007;SDS011;30743;52.008;5.644;2023-04-05T09:06:29;5.18;;;3.58;;
45007;SDS011;30743;52.008;5.644;2023-04-05T09:08:55;6.13;;;3.70;;
45007;SDS011;30743;52.008;5.644;2023-04-05T09:11:22;5.93;;;4.13;;
45007;SDS011;30743;52.008;5.644;2023-04-05T09:13:48;6.47;;;3.78;;
45007;SDS011;30743;52.008;5.644;2023-04-05T09:16:15;8.95;;;4.05;;
45007;SDS011;30743;52.008;5.644;2023-04-05T09:18:41;4.72;;;3.38;;
45007;SDS011;30743;52.008;5.644;2023-04-05T09:21:06;6.13;;;3.25;;
45007;SDS011;30743;52.008;5.644;2023-04-05T09:23:33;4.88;;;3.10;;
45007;SDS011;30743;52.008;5.644;2023-04-05T09:25:59;6.47;;;3.95;;
45007;SDS011;30743;52.008;5.644;2023-04-05T09:28:40;7.10;;;3.47;;
45007;SDS011;30743;52.008;5.644;2023-04-05T09:31:07;5.47;;;3.53;;
45007;SDS011;30743;52.008;5.644;2023-04-05T09:33:32;6.30;;;3.63;;
45007;SDS011;30743;52.008;5.644;2023-04-05T09:35:58;4.28;;;3.47;;
45007;SDS011;30743;52.008;5.644;2023-04-05T09:38:43;4.40;;;3.60;;
45007;SDS011;30743;52.008;5.644;2023-04-05T09:41:09;4.28;;;3.35;;
45007;SDS011;30743;52.008;5.644;2023-04-05T09:43:38;5.82;;;3.65;;
45007;SDS011;30743;52.008;5.644;2023-04-05T09:46:06;6.65;;;3.47;;
45007;SDS011;30743;52.008;5.644;2023-04-05T09:48:51;7.95;;;4.00;;
45007;SDS011;30743;52.008;5.644;2023-04-05T09:51:16;6.32;;;3.45;;
45007;SDS011;30743;52.008;5.644;2023-04-05T09:56:32;6.55;;;3.78;;
45007;SDS011;30743;52.008;5.644;2023-04-05T09:59:17;5.78;;;3.45;;
45007;SDS011;30743;52.008;5.644;2023-04-05T10:01:42;4.43;;;3.03;;
45007;SDS011;30743;52.008;5.644;2023-04-05T10:04:08;3.97;;;3.22;;
45007;SDS011;30743;52.008;5.644;2023-04-05T10:06:35;7.95;;;3.10;;
45007;SDS011;30743;52.008;5.644;2023-04-05T10:09:02;5.68;;;3.38;;
45007;SDS011;30743;52.008;5.644;2023-04-05T10:11:28;4.40;;;3.08;;
45007;SDS011;30743;52.008;5.644;2023-04-05T10:13:54;7.00;;;3.20;;
45007;SDS011;30743;52.008;5.644;2023-04-05T10:16:21;4.82;;;3.50;;
45007;SDS011;30743;52.008;5.644;2023-04-05T10:18:49;6.57;;;3.70;;
45007;SDS011;30743;52.008;5.644;2023-04-05T10:21:22;5.97;;;3.22;;
45007;SDS011;30743;52.008;5.644;2023-04-05T10:23:54;6.07;;;3.40;;
45007;SDS011;30743;52.008;5.644;2023-04-05T10:26:50;6.07;;;3.63;;
45007;SDS011;30743;52.008;5.644;2023-04-05T10:29:29;7.22;;;3.28;;
45007;SDS011;30743;52.008;5.644;2023-04-05T10:32:34;5.50;;;3.58;;
45007;SDS011;30743;52.008;5.644;2023-04-05T10:35:23;5.90;;;3.63;;
45007;SDS011;30743;52.008;5.644;2023-04-05T10:40:26;4.75;;;3.38;;
45007;SDS011;30743;52.008;5.644;2023-04-05T10:42:57;4.07;;;3.15;;
45007;SDS011;30743;52.008;5.644;2023-04-05T10:45:24;5.43;;;3.65;;
45007;SDS011;30743;52.008;5.644;2023-04-05T10:47:53;4.25;;;3.28;;
45007;SDS011;30743;52.008;5.644;2023-04-05T10:50:23;5.72;;;3.65;;
45007;SDS011;30743;52.008;5.644;2023-04-05T10:52:49;6.20;;;3.45;;
45007;SDS011;30743;52.008;5.644;2023-04-05T10:55:16;5.40;;;3.67;;
45007;SDS011;30743;52.008;5.644;2023-04-05T10:57:43;5.72;;;3.92;;
45007;SDS011;30743;52.008;5.644;2023-04-05T11:00:10;5.00;;;3.17;;
45007;SDS011;30743;52.008;5.644;2023-04-05T11:02:37;6.85;;;3.70;;
45007;SDS011;30743;52.008;5.644;2023-04-05T11:05:03;7.97;;;3.67;;
45007;SDS011;30743;52.008;5.644;2023-04-05T11:07:41;5.10;;;3.80;;
45007;SDS011;30743;52.008;5.644;2023-04-05T11:10:16;5.05;;;3.63;;
45007;SDS011;30743;52.008;5.644;2023-04-05T11:20:47;7.60;;;3.78;;
45007;SDS011;30743;52.008;5.644;2023-04-05T11:23:20;6.60;;;3.53;;
45007;SDS011;30743;52.008;5.644;2023-04-05T11:25:51;4.78;;;3.45;;
45007;SDS011;30743;52.008;5.644;2023-04-05T11:28:25;5.72;;;3.40;;
45007;SDS011;30743;52.008;5.644;2023-04-05T11:30:54;6.10;;;3.60;;
45007;SDS011;30743;52.008;5.644;2023-04-05T11:33:35;5.55;;;3.20;;
45007;SDS011;30743;52.008;5.644;2023-04-05T11:36:36;4.57;;;3.28;;
45007;SDS011;30743;52.008;5.644;2023-04-05T11:44:48;4.22;;;3.38;;
45007;SDS011;30743;52.008;5.644;2023-04-05T11:47:16;6.97;;;3.65;;
45007;SDS011;30743;52.008;5.644;2023-04-05T11:49:45;7.30;;;3.53;;
45007;SDS011;30743;52.008;5.644;2023-04-05T11:52:17;6.70;;;3.57;;
45007;SDS011;30743;52.008;5.644;2023-04-05T11:54:44;4.82;;;3.42;;
45007;SDS011;30743;52.008;5.644;2023-04-05T11:57:17;6.68;;;3.65;;
45007;SDS011;30743;52.008;5.644;2023-04-05T11:59:44;6.07;;;3.42;;
45007;SDS011;30743;52.008;5.644;2023-04-05T12:02:10;4.75;;;3.55;;
45007;SDS011;30743;52.008;5.644;2023-04-05T12:04:36;5.35;;;3.42;;
45007;SDS011;30743;52.008;5.644;2023-04-05T12:07:13;5.90;;;3.67;;
45007;SDS011;30743;52.008;5.644;2023-04-05T12:12:26;7.72;;;3.75;;
45007;SDS011;30743;52.008;5.644;2023-04-05T12:15:00;5.53;;;3.60;;
45007;SDS011;30743;52.008;5.644;2023-04-05T12:17:36;5.97;;;3.70;;
45007;SDS011;30743;52.008;5.644;2023-04-05T12:20:03;7.80;;;3.50;;
45007;SDS011;30743;52.008;5.644;2023-04-05T12:22:29;5.57;;;3.75;;
45007;SDS011;30743;52.008;5.644;2023-04-05T12:24:55;6.65;;;3.85;;
45007;SDS011;30743;52.008;5.644;2023-04-05T12:27:21;4.85;;;3.47;;
45007;SDS011;30743;52.008;5.644;2023-04-05T12:30:05;4.63;;;3.28;;
45007;SDS011;30743;52.008;5.644;2023-04-05T12:32:43;5.95;;;3.38;;
45007;SDS011;30743;52.008;5.644;2023-04-05T12:35:14;6.15;;;3.30;;
45007;SDS011;30743;52.008;5.644;2023-04-05T12:37:41;4.72;;;3.45;;
45007;SDS011;30743;52.008;5.644;2023-04-05T12:40:07;6.50;;;3.75;;
45007;SDS011;30743;52.008;5.644;2023-04-05T12:42:33;4.82;;;3.28;;
45007;SDS011;30743;52.008;5.644;2023-04-05T12:45:08;4.95;;;3.50;;
45007;SDS011;30743;52.008;5.644;2023-04-05T12:47:35;6.25;;;3.50;;
45007;SDS011;30743;52.008;5.644;2023-04-05T12:50:24;4.63;;;3.40;;
45007;SDS011;30743;52.008;5.644;2023-04-05T12:52:55;4.65;;;3.13;;
45007;SDS011;30743;52.008;5.644;2023-04-05T12:55:25;7.75;;;3.63;;
45007;SDS011;30743;52.008;5.644;2023-04-05T12:57:54;3.63;;;3.10;;
45007;SDS011;30743;52.008;5.644;2023-04-05T13:00:25;7.78;;;3.65;;
45007;SDS011;30743;52.008;5.644;2023-04-05T13:02:53;6.97;;;3.40;;
45007;SDS011;30743;52.008;5.644;2023-04-05T13:05:20;4.30;;;3.47;;
45007;SDS011;30743;52.008;5.644;2023-04-05T13:07:47;4.93;;;3.45;;
45007;SDS011;30743;52.008;5.644;2023-04-05T13:10:13;5.75;;;3.33;;
45007;SDS011;30743;52.008;5.644;2023-04-05T13:12:39;5.70;;;3.40;;
45007;SDS011;30743;52.008;5.644;2023-04-05T13:15:05;4.57;;;3.50;;
45007;SDS011;30743;52.008;5.644;2023-04-05T13:17:31;7.15;;;3.65;;
45007;SDS011;30743;52.008;5.644;2023-04-05T13:19:56;5.32;;;3.70;;
45007;SDS011;30743;52.008;5.644;2023-04-05T13:22:22;5.20;;;3.40;;
45007;SDS011;30743;52.008;5.644;2023-04-05T13:24:47;6.10;;;3.38;;
45007;SDS011;30743;52.008;5.644;2023-04-05T13:27:13;5.57;;;3.00;;
45007;SDS011;30743;52.008;5.644;2023-04-05T13:29:38;6.90;;;3.85;;
45007;SDS011;30743;52.008;5.644;2023-04-05T13:32:04;5.30;;;3.55;;
45007;SDS011;30743;52.008;5.644;2023-04-05T13:34:30;5.97;;;3.88;;
45007;SDS011;30743;52.008;5.644;2023-04-05T13:36:55;6.03;;;3.85;;
45007;SDS011;30743;52.008;5.644;2023-04-05T13:39:21;4.40;;;3.50;;
45007;SDS011;30743;52.008;5.644;2023-04-05T13:41:46;6.10;;;3.90;;
45007;SDS011;30743;52.008;5.644;2023-04-05T13:44:12;6.45;;;3.47;;
45007;SDS011;30743;52.008;5.644;2023-04-05T13:46:38;5.30;;;3.15;;
45007;SDS011;30743;52.008;5.644;2023-04-05T13:49:03;4.47;;;3.53;;
45007;SDS011;30743;52.008;5.644;2023-04-05T13:51:29;5.40;;;3.67;;
45007;SDS011;30743;52.008;5.644;2023-04-05T13:53:58;4.35;;;3.25;;
45007;SDS011;30743;52.008;5.644;2023-04-05T13:56:23;5.07;;;3.50;;
45007;SDS011;30743;52.008;5.644;2023-04-05T13:58:49;4.50;;;3.85;;
45007;SDS011;30743;52.008;5.644;2023-04-05T14:01:15;6.25;;;3.85;;
45007;SDS011;30743;52.008;5.644;2023-04-05T14:03:40;6.13;;;3.67;;
45007;SDS011;30743;52.008;5.644;2023-04-05T14:06:06;5.93;;;4.15;;
45007;SDS011;30743;52.008;5.644;2023-04-05T14:08:32;9.02;;;4.10;;
45007;SDS011;30743;52.008;5.644;2023-04-05T14:10:57;5.35;;;3.75;;
45007;SDS011;30743;52.008;5.644;2023-04-05T14:13:23;4.93;;;3.30;;
45007;SDS011;30743;52.008;5.644;2023-04-05T14:15:48;5.85;;;3.78;;
45007;SDS011;30743;52.008;5.644;2023-04-05T14:18:14;5.55;;;3.97;;
45007;SDS011;30743;52.008;5.644;2023-04-05T14:20:40;6.78;;;4.07;;
45007;SDS011;30743;52.008;5.644;2023-04-05T14:23:05;4.57;;;3.70;;
45007;SDS011;30743;52.008;5.644;2023-04-05T14:25:31;4.63;;;3.40;;
45007;SDS011;30743;52.008;5.644;2023-04-05T14:27:56;5.85;;;4.50;;
45007;SDS011;30743;52.008;5.644;2023-04-05T14:30:22;5.43;;;4.22;;
45007;SDS011;30743;52.008;5.644;2023-04-05T14:32:48;6.80;;;4.03;;
45007;SDS011;30743;52.008;5.644;2023-04-05T14:35:13;8.07;;;3.97;;
45007;SDS011;30743;52.008;5.644;2023-04-05T14:37:39;6.30;;;3.63;;
45007;SDS011;30743;52.008;5.644;2023-04-05T14:40:04;7.60;;;4.20;;
45007;SDS011;30743;52.008;5.644;2023-04-05T14:42:30;7.13;;;3.97;;
45007;SDS011;30743;52.008;5.644;2023-04-05T14:44:56;5.70;;;3.90;;
45007;SDS011;30743;52.008;5.644;2023-04-05T14:47:21;5.10;;;3.58;;
45007;SDS011;30743;52.008;5.644;2023-04-05T14:49:47;5.57;;;3.67;;
45007;SDS011;30743;52.008;5.644;2023-04-05T14:52:12;5.55;;;3.67;;
45007;SDS011;30743;52.008;5.644;2023-04-05T14:54:38;5.82;;;3.92;;
45007;SDS011;30743;52.008;5.644;2023-04-05T14:57:11;6.10;;;3.92;;
45007;SDS011;30743;52.008;5.644;2023-04-05T14:59:36;6.88;;;4.53;;
45007;SDS011;30743;52.008;5.644;2023-04-05T15:02:02;6.43;;;4.10;;
45007;SDS011;30743;52.008;5.644;2023-04-05T15:04:27;5.20;;;3.90;;
45007;SDS011;30743;52.008;5.644;2023-04-05T15:06:53;8.25;;;3.92;;
45007;SDS011;30743;52.008;5.644;2023-04-05T15:09:19;6.53;;;4.00;;
45007;SDS011;30743;52.008;5.644;2023-04-05T15:11:44;5.35;;;3.75;;
45007;SDS011;30743;52.008;5.644;2023-04-05T15:14:10;4.70;;;4.10;;
45007;SDS011;30743;52.008;5.644;2023-04-05T15:16:36;7.47;;;4.18;;
45007;SDS011;30743;52.008;5.644;2023-04-05T15:19:01;5.65;;;3.90;;
45007;SDS011;30743;52.008;5.644;2023-04-05T15:21:27;7.07;;;4.22;;
45007;SDS011;30743;52.008;5.644;2023-04-05T15:23:53;4.72;;;3.67;;
45007;SDS011;30743;52.008;5.644;2023-04-05T15:26:18;8.02;;;4.20;;
45007;SDS011;30743;52.008;5.644;2023-04-05T15:28:44;5.88;;;4.18;;
45007;SDS011;30743;52.008;5.644;2023-04-05T15:31:10;5.90;;;4.18;;